Time;durP1;ratioP1;P1;durP2;ratioP2;P2;SDS_P1;SDS_P2;PMS_P1;PMS_P2;Temp;Humidity;BMP_temperature;BMP_pressure;BME280_temperature;BME280_humidity;BME280_pressure;Samples;Min_cycle;Max_cycle;Signal;HPM_P1;HPM_P2
2021/03/19 00:00:50;;;;;;;4.93;4.53;;;;;;;;;;5053146;28;20467;-66
2021/03/19 00:03:17;;;;;;;5.00;4.60;;;;;;;;;;5053325;28;20464;-65
2021/03/19 00:05:44;;;;;;;4.57;4.17;;;;;;;;;;5053217;28;20495;-65
2021/03/19 00:08:11;;;;;;;5.17;4.67;;;;;;;;;;5053058;28;20538;-65
2021/03/19 00:10:38;;;;;;;5.63;4.20;;;;;;;;;;5053053;28;20627;-65
2021/03/19 00:13:07;;;;;;;4.30;4.00;;;;;;;;;;5049655;28;20693;-64
2021/03/19 00:15:34;;;;;;;5.00;4.00;;;;;;;;;;5049446;28;20456;-65
2021/03/19 00:18:01;;;;;;;4.27;3.97;;;;;;;;;;5045950;28;20444;-65
2021/03/19 00:20:28;;;;;;;4.67;4.27;;;;;;;;;;5051738;28;20898;-65
2021/03/19 00:22:55;;;;;;;4.20;3.90;;;;;;;;;;5054727;28;20466;-64
2021/03/19 00:25:22;;;;;;;6.17;4.33;;;;;;;;;;5053898;28;20468;-66
2021/03/19 00:27:49;;;;;;;4.97;4.57;;;;;;;;;;5053894;28;20527;-65
2021/03/19 00:30:16;;;;;;;4.50;4.10;;;;;;;;;;5049387;28;20483;-66
2021/03/19 00:32:43;;;;;;;4.40;4.00;;;;;;;;;;5052521;28;20460;-65
2021/03/19 00:35:11;;;;;;;4.57;4.20;;;;;;;;;;5050792;28;20833;-65
2021/03/19 00:37:37;;;;;;;5.27;4.77;;;;;;;;;;5051289;28;20472;-65
2021/03/19 00:40:05;;;;;;;6.00;4.20;;;;;;;;;;5051542;28;20491;-65
2021/03/19 00:42:33;;;;;;;4.80;4.33;;;;;;;;;;5052792;28;21025;-65
2021/03/19 00:45:00;;;;;;;4.90;4.43;;;;;;;;;;5052448;28;20464;-65
2021/03/19 00:47:26;;;;;;;4.50;4.20;;;;;;;;;;5050458;28;20464;-65
2021/03/19 00:49:53;;;;;;;4.37;4.07;;;;;;;;;;5052814;28;20554;-65
2021/03/19 00:52:19;;;;;;;4.83;4.33;;;;;;;;;;5053436;28;20444;-65
2021/03/19 00:54:46;;;;;;;4.40;4.10;;;;;;;;;;5051584;28;20475;-66
2021/03/19 00:57:13;;;;;;;4.23;3.93;;;;;;;;;;5049758;28;20857;-65
2021/03/19 00:59:40;;;;;;;4.43;4.13;;;;;;;;;;5051574;28;20487;-66
2021/03/19 01:02:07;;;;;;;5.23;4.53;;;;;;;;;;5047218;28;20966;-65
2021/03/19 01:04:34;;;;;;;5.23;4.73;;;;;;;;;;5051300;28;20922;-64
2021/03/19 01:07:00;;;;;;;4.90;4.40;;;;;;;;;;5050631;28;20986;-65
2021/03/19 01:09:27;;;;;;;4.67;4.30;;;;;;;;;;5052591;28;20550;-65
2021/03/19 01:11:54;;;;;;;5.20;4.80;;;;;;;;;;5051489;28;20546;-65
2021/03/19 01:14:21;;;;;;;5.47;4.23;;;;;;;;;;5052746;28;20534;-66
2021/03/19 01:16:48;;;;;;;4.83;4.33;;;;;;;;;;5050556;28;20819;-65
2021/03/19 01:19:15;;;;;;;5.23;4.83;;;;;;;;;;5050349;28;20573;-65
2021/03/19 01:21:41;;;;;;;5.27;4.77;;;;;;;;;;5051720;28;20503;-65
2021/03/19 01:24:09;;;;;;;4.70;4.40;;;;;;;;;;5054584;28;20444;-65
2021/03/19 01:26:35;;;;;;;5.73;5.23;;;;;;;;;;5052196;28;20976;-65
2021/03/19 01:29:02;;;;;;;4.97;4.57;;;;;;;;;;5043804;28;20463;-65
2021/03/19 01:31:28;;;;;;;5.30;4.80;;;;;;;;;;5052056;28;20448;-65
2021/03/19 01:33:56;;;;;;;13.83;5.30;;;;;;;;;;5046629;28;20833;-65
2021/03/19 01:36:23;;;;;;;4.90;4.50;;;;;;;;;;5051470;28;20454;-64
2021/03/19 01:38:49;;;;;;;5.20;4.70;;;;;;;;;;5051622;28;20454;-65
2021/03/19 01:41:16;;;;;;;4.97;4.67;;;;;;;;;;5048906;28;21077;-65
2021/03/19 01:43:43;;;;;;;5.03;4.63;;;;;;;;;;5050891;28;21162;-65
2021/03/19 01:46:32;;;;;;;5.80;5.20;;;;;;;;;;5050485;28;20459;-66
2021/03/19 01:49:18;;;;;;;4.80;4.40;;;;;;;;;;5049741;28;20456;-65
2021/03/19 01:52:03;;;;;;;4.53;4.13;;;;;;;;;;5051934;28;20473;-65
2021/03/19 01:54:48;;;;;;;5.33;4.83;;;;;;;;;;5051594;28;20597;-66
2021/03/19 01:57:33;;;;;;;5.57;5.17;;;;;;;;;;5051196;28;20890;-65
2021/03/19 02:00:18;;;;;;;4.93;4.53;;;;;;;;;;5051817;28;20483;-66
2021/03/19 02:03:02;;;;;;;4.87;4.57;;;;;;;;;;5049368;28;20463;-65
2021/03/19 02:05:47;;;;;;;5.63;5.03;;;;;;;;;;5018882;28;20466;-65
2021/03/19 02:08:33;;;;;;;5.93;5.30;;;;;;;;;;5049606;28;20550;-65
2021/03/19 02:11:18;;;;;;;5.50;5.10;;;;;;;;;;5050582;28;20480;-65
2021/03/19 02:14:03;;;;;;;5.93;5.17;;;;;;;;;;5039103;28;20542;-65
2021/03/19 02:16:48;;;;;;;6.33;4.77;;;;;;;;;;5037270;28;20555;-64
2021/03/19 02:19:33;;;;;;;5.30;4.90;;;;;;;;;;5050803;28;20487;-64
2021/03/19 02:22:18;;;;;;;6.07;5.30;;;;;;;;;;5051070;28;20459;-65
2021/03/19 02:25:03;;;;;;;5.50;5.00;;;;;;;;;;5050014;28;20464;-65
2021/03/19 02:28:03;;;;;;;5.40;5.00;;;;;;;;;;5051253;28;20467;-66
2021/03/19 02:30:48;;;;;;;5.90;5.40;;;;;;;;;;4963799;28;20479;-65
2021/03/19 02:33:16;;;;;;;6.07;5.67;;;;;;;;;;4968490;28;20467;-65
2021/03/19 02:35:51;;;;;;;5.50;5.13;;;;;;;;;;5013189;28;21112;-66
2021/03/19 02:38:18;;;;;;;5.60;5.20;;;;;;;;;;5050749;28;20541;-64
2021/03/19 02:40:45;;;;;;;5.97;5.37;;;;;;;;;;5048886;28;20502;-66
2021/03/19 02:43:11;;;;;;;6.13;5.60;;;;;;;;;;5051419;28;20444;-67
2021/03/19 02:45:38;;;;;;;7.10;6.40;;;;;;;;;;5048893;28;20558;-66
2021/03/19 02:48:05;;;;;;;6.43;5.13;;;;;;;;;;5031709;28;20515;-67
2021/03/19 02:50:32;;;;;;;7.93;5.60;;;;;;;;;;5040834;28;20480;-67
2021/03/19 02:52:59;;;;;;;5.77;5.37;;;;;;;;;;5051495;28;20452;-67
2021/03/19 02:55:25;;;;;;;6.83;6.13;;;;;;;;;;5052079;28;20463;-67
2021/03/19 02:57:52;;;;;;;5.80;5.30;;;;;;;;;;5050424;28;21105;-67
2021/03/19 03:00:20;;;;;;;6.37;5.80;;;;;;;;;;5049792;28;20553;-68
2021/03/19 03:02:47;;;;;;;5.80;5.37;;;;;;;;;;5048806;28;20506;-66
2021/03/19 03:05:14;;;;;;;6.53;6.03;;;;;;;;;;5050505;28;20740;-67
2021/03/19 03:07:42;;;;;;;5.57;5.13;;;;;;;;;;5049196;28;20478;-68
2021/03/19 03:10:10;;;;;;;8.33;5.83;;;;;;;;;;5049872;28;20479;-67
2021/03/19 03:12:37;;;;;;;6.30;5.80;;;;;;;;;;5050298;28;20456;-67
2021/03/19 03:15:04;;;;;;;6.40;5.90;;;;;;;;;;5049210;28;20463;-66
2021/03/19 03:17:31;;;;;;;6.30;5.50;;;;;;;;;;5048695;28;20546;-67
2021/03/19 03:19:57;;;;;;;6.10;5.53;;;;;;;;;;5050474;28;20495;-67
2021/03/19 03:22:24;;;;;;;6.30;5.80;;;;;;;;;;5051291;28;20494;-67
2021/03/19 03:24:51;;;;;;;7.00;6.50;;;;;;;;;;5054046;28;20467;-67
2021/03/19 03:27:18;;;;;;;6.93;5.80;;;;;;;;;;5053208;28;20464;-66
2021/03/19 03:29:45;;;;;;;6.57;6.03;;;;;;;;;;5052643;28;20498;-66
2021/03/19 03:32:11;;;;;;;6.60;6.00;;;;;;;;;;5052688;28;20498;-67
2021/03/19 03:34:38;;;;;;;6.40;5.53;;;;;;;;;;5054282;28;20526;-66
2021/03/19 03:37:05;;;;;;;6.37;5.87;;;;;;;;;;5053167;28;20831;-67
2021/03/19 03:39:33;;;;;;;6.93;6.33;;;;;;;;;;5053079;28;20479;-66
2021/03/19 03:42:02;;;;;;;5.70;5.20;;;;;;;;;;5053407;28;20551;-67
2021/03/19 03:44:29;;;;;;;6.30;5.70;;;;;;;;;;5053790;28;20452;-66
2021/03/19 03:46:56;;;;;;;6.67;6.17;;;;;;;;;;5050753;28;20980;-67
2021/03/19 03:49:23;;;;;;;6.33;5.83;;;;;;;;;;5054456;28;20460;-66
2021/03/19 03:51:50;;;;;;;6.90;6.30;;;;;;;;;;5052433;28;20555;-67
2021/03/19 03:54:17;;;;;;;6.27;5.77;;;;;;;;;;5053393;28;20957;-66
2021/03/19 03:56:43;;;;;;;7.00;6.23;;;;;;;;;;5050733;28;20468;-66
2021/03/19 03:59:11;;;;;;;6.60;6.10;;;;;;;;;;5046514;28;21026;-67
2021/03/19 04:01:39;;;;;;;7.33;6.73;;;;;;;;;;5051549;28;20463;-65
2021/03/19 04:04:06;;;;;;;7.20;6.50;;;;;;;;;;5053182;28;20482;-66
2021/03/19 04:06:33;;;;;;;7.83;6.67;;;;;;;;;;5052434;28;20963;-65
2021/03/19 04:08:59;;;;;;;7.97;7.37;;;;;;;;;;5053793;28;20451;-65
2021/03/19 04:11:26;;;;;;;7.63;7.03;;;;;;;;;;5052195;28;20464;-66
2021/03/19 04:13:53;;;;;;;9.17;7.67;;;;;;;;;;5053129;28;20538;-65
2021/03/19 04:16:21;;;;;;;7.10;6.40;;;;;;;;;;5049392;28;20949;-67
2021/03/19 04:18:47;;;;;;;7.13;6.53;;;;;;;;;;5040252;28;20444;-67
2021/03/19 04:21:14;;;;;;;9.63;8.07;;;;;;;;;;5052296;28;20602;-67
2021/03/19 04:23:43;;;;;;;8.57;7.67;;;;;;;;;;5054500;28;20602;-66
2021/03/19 04:26:16;;;;;;;8.20;7.50;;;;;;;;;;5050524;28;20550;-67
2021/03/19 04:28:43;;;;;;;8.00;7.33;;;;;;;;;;5053818;28;20440;-66
2021/03/19 04:31:09;;;;;;;10.03;7.33;;;;;;;;;;5050126;28;20479;-66
2021/03/19 04:33:37;;;;;;;8.37;7.60;;;;;;;;;;5054144;28;20966;-66
2021/03/19 04:36:09;;;;;;;8.63;7.90;;;;;;;;;;5051794;28;20482;-65
2021/03/19 04:38:36;;;;;;;9.03;8.23;;;;;;;;;;5053076;28;20895;-66
2021/03/19 04:41:03;;;;;;;9.37;8.60;;;;;;;;;;5040089;28;21895;-67
2021/03/19 04:43:30;;;;;;;11.67;9.23;;;;;;;;;;5052943;28;21066;-66
2021/03/19 04:45:56;;;;;;;10.10;9.20;;;;;;;;;;5051988;28;20463;-66
2021/03/19 04:48:23;;;;;;;11.20;10.30;;;;;;;;;;5053132;28;20558;-66
2021/03/19 04:50:51;;;;;;;10.40;9.30;;;;;;;;;;5051516;28;20480;-66
2021/03/19 04:53:17;;;;;;;11.07;10.07;;;;;;;;;;5052848;28;20556;-67
2021/03/19 04:55:44;;;;;;;10.77;9.87;;;;;;;;;;5051474;28;20478;-65
2021/03/19 04:58:11;;;;;;;11.67;10.57;;;;;;;;;;5052859;28;20452;-67
2021/03/19 05:00:38;;;;;;;11.90;10.90;;;;;;;;;;5049545;28;20491;-67
2021/03/19 05:03:04;;;;;;;11.57;10.37;;;;;;;;;;5052791;28;20554;-67
2021/03/19 05:05:32;;;;;;;11.20;10.20;;;;;;;;;;5050939;28;20535;-67
2021/03/19 05:08:00;;;;;;;12.57;11.47;;;;;;;;;;5053051;28;20450;-67
2021/03/19 05:10:28;;;;;;;12.17;11.27;;;;;;;;;;5050577;28;21005;-66
2021/03/19 05:12:55;;;;;;;13.13;12.03;;;;;;;;;;5052919;28;20550;-67
2021/03/19 05:15:23;;;;;;;12.30;11.30;;;;;;;;;;5049613;28;20529;-65
2021/03/19 05:17:50;;;;;;;12.87;11.77;;;;;;;;;;5049370;28;20471;-67
2021/03/19 05:20:16;;;;;;;12.00;10.93;;;;;;;;;;5049723;28;20495;-65
2021/03/19 05:22:43;;;;;;;12.67;11.67;;;;;;;;;;5052400;28;20911;-66
2021/03/19 05:25:12;;;;;;;13.73;12.33;;;;;;;;;;5051520;28;20555;-66
2021/03/19 05:27:39;;;;;;;13.87;12.80;;;;;;;;;;5051687;28;20475;-66
2021/03/19 05:30:07;;;;;;;14.57;13.33;;;;;;;;;;5050874;28;20571;-66
2021/03/19 05:32:34;;;;;;;13.33;12.33;;;;;;;;;;5052653;28;20444;-66
2021/03/19 05:35:00;;;;;;;13.60;12.37;;;;;;;;;;5051596;28;20468;-65
2021/03/19 05:37:27;;;;;;;14.43;12.90;;;;;;;;;;5050901;28;20530;-66
2021/03/19 05:39:54;;;;;;;14.03;12.73;;;;;;;;;;5048596;28;20582;-66
2021/03/19 05:42:25;;;;;;;13.93;12.83;;;;;;;;;;5050715;28;20474;-66
2021/03/19 05:44:59;;;;;;;14.40;13.20;;;;;;;;;;5050712;28;20912;-65
2021/03/19 05:47:25;;;;;;;13.33;12.13;;;;;;;;;;5047085;28;20466;-66
2021/03/19 05:49:54;;;;;;;14.43;13.23;;;;;;;;;;5051344;28;20893;-66
2021/03/19 05:52:24;;;;;;;12.57;11.50;;;;;;;;;;5050745;28;20547;-65
2021/03/19 05:54:52;;;;;;;13.27;12.07;;;;;;;;;;5050512;28;20460;-65
2021/03/19 05:57:22;;;;;;;11.93;10.93;;;;;;;;;;5050233;28;20452;-66
2021/03/19 05:59:51;;;;;;;13.50;12.33;;;;;;;;;;5050463;28;20530;-66
2021/03/19 06:02:21;;;;;;;12.10;11.20;;;;;;;;;;5049402;28;20464;-66
2021/03/19 06:04:59;;;;;;;13.23;12.10;;;;;;;;;;5051997;28;20501;-66
2021/03/19 06:07:36;;;;;;;14.50;13.10;;;;;;;;;;5050362;28;20464;-66
2021/03/19 06:10:15;;;;;;;13.87;12.77;;;;;;;;;;5048822;28;20509;-66
2021/03/19 06:12:42;;;;;;;14.90;13.63;;;;;;;;;;5051162;28;20546;-65
2021/03/19 06:15:23;;;;;;;13.20;11.90;;;;;;;;;;5048389;28;20965;-64
2021/03/19 06:17:50;;;;;;;14.07;12.97;;;;;;;;;;5031551;28;20508;-64
2021/03/19 06:20:17;;;;;;;12.97;11.90;;;;;;;;;;5049755;28;20491;-63
2021/03/19 06:22:47;;;;;;;14.90;13.00;;;;;;;;;;5051241;28;20447;-64
2021/03/19 06:25:16;;;;;;;15.40;12.40;;;;;;;;;;5049231;28;20468;-68
2021/03/19 06:27:48;;;;;;;14.20;12.70;;;;;;;;;;5051608;28;20456;-64
2021/03/19 06:30:21;;;;;;;13.30;12.10;;;;;;;;;;5050309;28;21140;-63
2021/03/19 06:33:00;;;;;;;13.60;12.40;;;;;;;;;;5051232;28;20538;-64
2021/03/19 06:35:32;;;;;;;12.90;11.80;;;;;;;;;;5050135;28;20588;-63
2021/03/19 06:38:25;;;;;;;14.57;13.27;;;;;;;;;;5047399;28;20825;-65
2021/03/19 06:40:52;;;;;;;12.30;11.30;;;;;;;;;;5033727;28;20844;-64
2021/03/19 06:43:19;;;;;;;13.23;12.10;;;;;;;;;;5050212;28;20548;-67
2021/03/19 06:45:48;;;;;;;6.73;3.73;;;;;;;;;;5050741;28;20555;-68
2021/03/19 06:48:29;;;;;;;9.00;3.40;;;;;;;;;;5048976;28;20905;-67
2021/03/19 06:50:55;;;;;;;6.53;3.50;;;;;;;;;;5047730;28;20550;-66
2021/03/19 06:53:23;;;;;;;7.97;3.20;;;;;;;;;;5049462;28;20554;-66
2021/03/19 06:55:52;;;;;;;5.03;3.20;;;;;;;;;;5051998;28;20903;-67
2021/03/19 06:58:36;;;;;;;8.17;3.73;;;;;;;;;;5054584;28;20456;-65
2021/03/19 07:01:04;;;;;;;5.90;2.97;;;;;;;;;;5052923;28;20578;-67
2021/03/19 07:03:37;;;;;;;4.67;3.20;;;;;;;;;;5053768;28;20836;-66
2021/03/19 07:06:16;;;;;;;4.20;2.70;;;;;;;;;;5053701;28;20459;-64
2021/03/19 07:08:47;;;;;;;4.13;3.40;;;;;;;;;;5053517;28;20962;-67
2021/03/19 07:11:32;;;;;;;3.77;3.40;;;;;;;;;;5054687;28;20487;-66
2021/03/19 07:14:04;;;;;;;3.60;2.67;;;;;;;;;;5034130;28;20535;-67
2021/03/19 07:16:37;;;;;;;4.47;3.00;;;;;;;;;;5053892;28;20443;-67
2021/03/19 07:19:11;;;;;;;6.33;3.50;;;;;;;;;;5052361;28;20958;-66
2021/03/19 07:21:55;;;;;;;2.97;2.67;;;;;;;;;;5054139;28;20446;-65
2021/03/19 07:24:37;;;;;;;3.00;2.70;;;;;;;;;;5053388;28;20564;-66
2021/03/19 07:27:14;;;;;;;2.70;2.50;;;;;;;;;;5053227;28;20459;-66
2021/03/19 07:29:48;;;;;;;3.00;2.70;;;;;;;;;;5053083;28;21058;-67
2021/03/19 07:32:24;;;;;;;3.93;2.83;;;;;;;;;;5052567;28;20543;-66
2021/03/19 07:34:55;;;;;;;3.10;2.80;;;;;;;;;;5054418;28;20554;-66
2021/03/19 07:37:30;;;;;;;3.80;2.77;;;;;;;;;;5053446;28;20439;-66
2021/03/19 07:40:08;;;;;;;3.00;2.67;;;;;;;;;;5053663;28;21036;-66
2021/03/19 07:42:42;;;;;;;3.60;2.80;;;;;;;;;;5038008;28;20963;-66
2021/03/19 07:45:13;;;;;;;3.30;2.70;;;;;;;;;;5047547;28;20821;-65
2021/03/19 07:47:50;;;;;;;2.43;2.20;;;;;;;;;;5048482;28;20447;-65
2021/03/19 07:50:24;;;;;;;4.47;2.40;;;;;;;;;;5053771;28;20550;-65
2021/03/19 07:53:05;;;;;;;3.90;2.80;;;;;;;;;;5053883;28;20810;-67
2021/03/19 07:55:33;;;;;;;2.70;2.10;;;;;;;;;;5048642;28;20970;-68
2021/03/19 07:58:03;;;;;;;3.27;2.73;;;;;;;;;;5054147;28;20844;-65
2021/03/19 08:00:31;;;;;;;5.63;2.67;;;;;;;;;;5053333;28;20479;-65
2021/03/19 08:03:13;;;;;;;4.63;2.63;;;;;;;;;;5053551;28;20448;-64
2021/03/19 08:05:42;;;;;;;5.60;2.43;;;;;;;;;;5052082;28;20451;-64
2021/03/19 08:08:16;;;;;;;7.47;2.30;;;;;;;;;;5052952;28;20455;-65
2021/03/19 08:10:52;;;;;;;14.10;4.97;;;;;;;;;;5053185;28;20555;-64
2021/03/19 08:13:26;;;;;;;5.97;2.80;;;;;;;;;;5050548;28;20531;-65
2021/03/19 08:15:54;;;;;;;3.90;2.53;;;;;;;;;;5053109;28;20448;-66
2021/03/19 08:18:26;;;;;;;5.53;2.77;;;;;;;;;;5051056;28;20818;-64
2021/03/19 08:21:09;;;;;;;6.83;2.80;;;;;;;;;;5052682;28;20594;-66
2021/03/19 08:23:43;;;;;;;2.80;2.40;;;;;;;;;;5036647;28;20510;-64
2021/03/19 08:26:15;;;;;;;3.53;2.50;;;;;;;;;;5052516;28;20443;-67
2021/03/19 08:28:44;;;;;;;4.67;2.77;;;;;;;;;;5053523;28;20479;-67
2021/03/19 08:31:17;;;;;;;3.93;2.30;;;;;;;;;;5052854;28;20459;-65
2021/03/19 08:33:54;;;;;;;3.40;2.17;;;;;;;;;;5053488;28;20961;-66
2021/03/19 08:36:25;;;;;;;3.43;2.40;;;;;;;;;;5052106;28;20452;-65
2021/03/19 08:38:53;;;;;;;3.37;2.30;;;;;;;;;;5033291;28;20459;-65
2021/03/19 08:41:21;;;;;;;2.83;1.93;;;;;;;;;;5072546;22;20986;-65
2021/03/19 08:43:49;;;;;;;2.47;2.00;;;;;;;;;;5043901;28;20468;-63
2021/03/19 08:46:19;;;;;;;2.87;1.77;;;;;;;;;;5051506;28;20970;-63
2021/03/19 08:48:53;;;;;;;3.00;1.77;;;;;;;;;;5053336;28;20538;-62
2021/03/19 08:51:36;;;;;;;5.10;1.80;;;;;;;;;;5052718;28;20514;-62
2021/03/19 08:54:20;;;;;;;3.00;2.03;;;;;;;;;;5052788;28;21019;-62
2021/03/19 08:56:47;;;;;;;2.57;1.80;;;;;;;;;;5052214;28;20447;-63
2021/03/19 08:59:29;;;;;;;5.00;1.90;;;;;;;;;;5052575;28;20856;-61
2021/03/19 09:01:56;;;;;;;7.90;2.13;;;;;;;;;;5052116;28;20531;-61
2021/03/19 09:04:37;;;;;;;7.30;2.17;;;;;;;;;;5053002;28;20822;-62
2021/03/19 09:07:19;;;;;;;3.00;1.60;;;;;;;;;;5052203;28;20542;-60
2021/03/19 09:09:46;;;;;;;2.47;1.70;;;;;;;;;;5050278;28;20966;-61
2021/03/19 09:12:16;;;;;;;4.27;1.60;;;;;;;;;;5052077;28;20594;-64
2021/03/19 09:14:45;;;;;;;3.47;1.80;;;;;;;;;;5052932;28;20481;-63
2021/03/19 09:17:26;;;;;;;4.73;1.70;;;;;;;;;;5052158;28;20476;-61
2021/03/19 09:20:02;;;;;;;2.13;1.30;;;;;;;;;;5039679;28;20486;-61
2021/03/19 09:22:43;;;;;;;2.23;1.40;;;;;;;;;;5052222;28;20479;-62
2021/03/19 09:25:28;;;;;;;4.27;1.80;;;;;;;;;;5052399;28;20582;-60
2021/03/19 09:28:19;;;;;;;2.67;1.20;;;;;;;;;;5052998;28;20443;-60
2021/03/19 09:30:49;;;;;;;3.57;1.80;;;;;;;;;;4996407;28;20446;-60
2021/03/19 09:33:31;;;;;;;4.07;1.40;;;;;;;;;;5052451;28;20530;-60
2021/03/19 09:35:57;;;;;;;3.40;1.43;;;;;;;;;;5051822;28;20470;-60
2021/03/19 09:38:40;;;;;;;4.23;1.60;;;;;;;;;;5052796;28;20500;-60
2021/03/19 09:41:09;;;;;;;2.97;1.30;;;;;;;;;;5052026;28;20479;-62
2021/03/19 09:43:37;;;;;;;8.27;1.80;;;;;;;;;;5052139;28;20592;-63
2021/03/19 09:46:07;;;;;;;11.20;2.30;;;;;;;;;;5051607;28;20452;-62
2021/03/19 09:48:37;;;;;;;8.73;1.90;;;;;;;;;;5052864;28;20470;-63
2021/03/19 09:51:38;;;;;;;3.50;1.37;;;;;;;;;;5052538;28;20444;-62
2021/03/19 09:54:21;;;;;;;3.90;1.60;;;;;;;;;;5052587;28;20822;-62
2021/03/19 09:56:48;;;;;;;3.70;1.37;;;;;;;;;;5052051;28;20526;-62
2021/03/19 09:59:20;;;;;;;2.90;1.60;;;;;;;;;;5052453;28;20443;-62
2021/03/19 10:01:48;;;;;;;5.10;1.20;;;;;;;;;;5050037;28;20497;-62
2021/03/19 10:04:27;;;;;;;3.13;1.07;;;;;;;;;;5052874;28;20476;-62
2021/03/19 10:06:54;;;;;;;2.90;1.10;;;;;;;;;;5051625;28;20474;-62
2021/03/19 10:09:22;;;;;;;5.30;0.90;;;;;;;;;;5052190;28;20444;-62
2021/03/19 10:12:09;;;;;;;1.87;0.87;;;;;;;;;;5052487;28;20555;-62
2021/03/19 10:14:37;;;;;;;1.10;0.70;;;;;;;;;;5047561;28;21029;-62
2021/03/19 10:17:19;;;;;;;2.10;1.10;;;;;;;;;;5053267;28;20444;-62
2021/03/19 10:19:47;;;;;;;1.87;0.73;;;;;;;;;;5052498;28;20938;-62
2021/03/19 10:22:27;;;;;;;1.13;0.90;;;;;;;;;;5052714;28;20468;-62
2021/03/19 10:24:54;;;;;;;2.90;1.40;;;;;;;;;;5046016;28;20444;-64
2021/03/19 10:27:21;;;;;;;2.97;1.90;;;;;;;;;;5051758;28;20546;-63
2021/03/19 10:29:49;;;;;;;2.40;1.90;;;;;;;;;;5050856;28;21020;-66
2021/03/19 10:32:17;;;;;;;1.87;1.43;;;;;;;;;;5051535;28;20464;-64
2021/03/19 10:34:48;;;;;;;2.00;1.40;;;;;;;;;;5051607;28;20458;-71
2021/03/19 10:37:24;;;;;;;1.77;1.33;;;;;;;;;;5050727;28;20471;-63
2021/03/19 10:39:53;;;;;;;1.40;1.30;;;;;;;;;;5052516;28;20479;-65
2021/03/19 10:42:23;;;;;;;2.60;1.40;;;;;;;;;;5050313;28;21017;-65
2021/03/19 10:44:56;;;;;;;2.00;1.90;;;;;;;;;;5053817;28;20450;-65
2021/03/19 10:47:26;;;;;;;2.57;1.93;;;;;;;;;;5052388;28;20970;-65
2021/03/19 10:49:55;;;;;;;6.60;2.10;;;;;;;;;;5068789;28;20439;-66
2021/03/19 10:52:26;;;;;;;2.40;2.20;;;;;;;;;;5061995;28;20468;-65
2021/03/19 10:54:54;;;;;;;3.27;2.57;;;;;;;;;;5055765;28;20494;-65
2021/03/19 10:57:23;;;;;;;2.47;2.20;;;;;;;;;;5058977;28;20535;-65
2021/03/19 10:59:52;;;;;;;2.80;1.90;;;;;;;;;;5059803;28;20888;-65
2021/03/19 11:02:20;;;;;;;2.47;1.80;;;;;;;;;;5058114;28;20506;-65
2021/03/19 11:04:49;;;;;;;2.47;1.90;;;;;;;;;;5059258;28;20468;-65
2021/03/19 11:07:30;;;;;;;2.60;1.80;;;;;;;;;;5059537;28;20558;-66
2021/03/19 11:10:02;;;;;;;1.80;1.70;;;;;;;;;;5059448;28;20448;-64
2021/03/19 11:12:32;;;;;;;2.10;1.90;;;;;;;;;;5062468;28;20507;-63
2021/03/19 11:14:59;;;;;;;2.20;2.00;;;;;;;;;;5061385;28;20443;-61
2021/03/19 11:17:44;;;;;;;3.23;1.90;;;;;;;;;;5167436;27;20504;-65
2021/03/19 11:20:13;;;;;;;2.70;1.93;;;;;;;;;;5138225;27;20465;-67
2021/03/19 11:22:41;;;;;;;2.90;2.70;;;;;;;;;;5140199;27;20542;-65
2021/03/19 11:25:32;;;;;;;2.20;2.00;;;;;;;;;;5119570;27;20490;-65
2021/03/19 11:27:58;;;;;;;5.90;2.10;;;;;;;;;;5112111;27;20466;-65
2021/03/19 11:30:30;;;;;;;2.67;2.47;;;;;;;;;;5133014;27;20455;-65
2021/03/19 11:33:02;;;;;;;2.47;2.00;;;;;;;;;;5130031;27;21008;-65
2021/03/19 11:35:29;;;;;;;3.17;2.20;;;;;;;;;;5109836;28;20467;-66
2021/03/19 11:37:56;;;;;;;2.40;2.20;;;;;;;;;;5109369;28;20480;-65
2021/03/19 11:40:46;;;;;;;5.40;3.10;;;;;;;;;;5113952;27;20456;-65
2021/03/19 11:43:13;;;;;;;2.70;2.30;;;;;;;;;;5109987;27;20537;-65
2021/03/19 11:45:41;;;;;;;4.27;3.10;;;;;;;;;;5128317;27;20943;-66
2021/03/19 11:48:17;;;;;;;4.27;2.50;;;;;;;;;;5117500;27;20528;-65
2021/03/19 11:50:45;;;;;;;3.90;2.70;;;;;;;;;;5115971;27;20455;-65
2021/03/19 11:53:16;;;;;;;2.80;2.30;;;;;;;;;;5126636;28;20460;-64
2021/03/19 11:55:44;;;;;;;3.70;2.30;;;;;;;;;;5121874;27;20477;-64
2021/03/19 11:58:11;;;;;;;3.97;2.73;;;;;;;;;;5117403;27;20525;-64
2021/03/19 12:00:38;;;;;;;6.40;2.80;;;;;;;;;;5117864;27;20452;-64
2021/03/19 12:03:06;;;;;;;2.60;2.40;;;;;;;;;;5119480;27;20531;-64
2021/03/19 12:05:34;;;;;;;3.47;2.40;;;;;;;;;;5114629;27;20557;-63
2021/03/19 12:08:01;;;;;;;2.43;2.20;;;;;;;;;;5140984;27;20862;-64
2021/03/19 12:10:29;;;;;;;3.40;2.67;;;;;;;;;;5127545;27;21064;-63
2021/03/19 12:12:56;;;;;;;4.60;2.87;;;;;;;;;;5125119;27;20481;-64
2021/03/19 12:15:23;;;;;;;4.13;2.37;;;;;;;;;;5128269;27;20544;-64
2021/03/19 12:17:49;;;;;;;3.20;2.83;;;;;;;;;;5109282;27;21179;-64
2021/03/19 12:20:16;;;;;;;3.20;2.27;;;;;;;;;;5134344;27;21178;-64
2021/03/19 12:22:44;;;;;;;4.73;2.47;;;;;;;;;;5136679;27;20547;-64
2021/03/19 12:25:15;;;;;;;3.07;2.10;;;;;;;;;;5128404;27;20490;-64
2021/03/19 12:27:42;;;;;;;4.60;2.47;;;;;;;;;;5122360;27;20498;-66
2021/03/19 12:30:09;;;;;;;3.17;2.23;;;;;;;;;;5112937;28;20453;-66
2021/03/19 12:32:35;;;;;;;2.43;2.23;;;;;;;;;;5107625;27;20494;-66
2021/03/19 12:35:02;;;;;;;3.80;3.00;;;;;;;;;;5115458;27;20444;-66
2021/03/19 12:37:29;;;;;;;3.23;2.50;;;;;;;;;;5134914;27;20480;-66
2021/03/19 12:39:56;;;;;;;2.73;2.37;;;;;;;;;;5116183;27;20455;-66
2021/03/19 12:42:23;;;;;;;2.80;2.60;;;;;;;;;;5118944;27;20461;-66
2021/03/19 12:44:49;;;;;;;3.73;2.57;;;;;;;;;;5114766;28;20448;-66
2021/03/19 12:47:16;;;;;;;2.80;2.50;;;;;;;;;;5106144;27;20809;-66
2021/03/19 12:49:43;;;;;;;2.60;2.20;;;;;;;;;;5103871;27;20449;-66
2021/03/19 12:52:09;;;;;;;4.77;2.00;;;;;;;;;;5122373;27;20469;-67
2021/03/19 12:54:36;;;;;;;5.70;2.10;;;;;;;;;;5114432;27;20940;-66
2021/03/19 12:57:04;;;;;;;2.70;2.47;;;;;;;;;;5123679;27;20565;-64
2021/03/19 12:59:30;;;;;;;2.00;1.90;;;;;;;;;;5114365;28;20448;-65
2021/03/19 13:01:57;;;;;;;3.13;2.20;;;;;;;;;;5126629;27;20555;-67
2021/03/19 13:04:24;;;;;;;3.40;2.00;;;;;;;;;;5133825;27;20531;-65
2021/03/19 13:06:51;;;;;;;2.40;2.20;;;;;;;;;;5118658;27;20543;-65
2021/03/19 13:09:17;;;;;;;3.97;2.30;;;;;;;;;;5116463;27;20866;-66
2021/03/19 13:11:44;;;;;;;2.73;2.30;;;;;;;;;;5102781;27;20565;-64
2021/03/19 13:14:12;;;;;;;3.00;2.70;;;;;;;;;;5093922;28;20514;-64
2021/03/19 13:16:38;;;;;;;2.33;2.13;;;;;;;;;;5110749;27;20529;-64
2021/03/19 13:19:06;;;;;;;3.37;2.77;;;;;;;;;;5106403;28;20450;-64
2021/03/19 13:21:33;;;;;;;2.80;2.00;;;;;;;;;;5121140;27;20978;-66
2021/03/19 13:24:00;;;;;;;2.50;2.30;;;;;;;;;;5126374;27;20463;-64
2021/03/19 13:26:27;;;;;;;3.67;2.30;;;;;;;;;;5134526;27;20496;-67
2021/03/19 13:28:54;;;;;;;3.30;2.60;;;;;;;;;;5127013;27;20457;-63
2021/03/19 13:31:21;;;;;;;3.30;2.73;;;;;;;;;;5093793;28;20452;-64
2021/03/19 13:33:48;;;;;;;3.30;2.93;;;;;;;;;;5100015;27;20445;-64
2021/03/19 13:36:15;;;;;;;4.23;2.40;;;;;;;;;;5124567;27;20488;-66
2021/03/19 13:38:42;;;;;;;4.20;3.13;;;;;;;;;;5132136;27;20483;-66
2021/03/19 13:41:09;;;;;;;4.03;2.90;;;;;;;;;;5133644;27;20440;-67
2021/03/19 13:43:39;;;;;;;5.70;3.40;;;;;;;;;;5133642;27;20467;-64
2021/03/19 13:46:06;;;;;;;3.33;2.90;;;;;;;;;;5113284;28;20441;-64
2021/03/19 13:48:34;;;;;;;3.53;3.00;;;;;;;;;;5121120;27;20504;-67
2021/03/19 13:51:01;;;;;;;3.00;2.80;;;;;;;;;;5123346;27;20532;-64
2021/03/19 13:53:28;;;;;;;3.10;2.77;;;;;;;;;;5123510;27;20917;-66
2021/03/19 13:55:55;;;;;;;3.50;3.17;;;;;;;;;;5129070;27;21041;-67
2021/03/19 13:58:23;;;;;;;3.70;2.90;;;;;;;;;;5113329;28;20528;-64
2021/03/19 14:00:50;;;;;;;3.43;3.10;;;;;;;;;;5117237;27;20480;-67
2021/03/19 14:03:16;;;;;;;3.93;3.20;;;;;;;;;;5133869;27;20460;-66
2021/03/19 14:05:44;;;;;;;3.80;3.10;;;;;;;;;;5113449;27;20454;-64
2021/03/19 14:08:12;;;;;;;6.67;2.97;;;;;;;;;;5133958;27;20530;-64
2021/03/19 14:10:39;;;;;;;2.63;2.40;;;;;;;;;;5131807;27;20966;-64
2021/03/19 14:13:05;;;;;;;4.80;2.47;;;;;;;;;;5113265;27;20461;-65
2021/03/19 14:15:32;;;;;;;2.80;1.97;;;;;;;;;;5124849;27;20485;-65
2021/03/19 14:17:59;;;;;;;3.33;3.03;;;;;;;;;;5113043;28;20443;-65
2021/03/19 14:20:27;;;;;;;3.40;2.70;;;;;;;;;;5112400;28;20952;-64
2021/03/19 14:22:54;;;;;;;4.40;2.73;;;;;;;;;;5113093;27;20461;-66
2021/03/19 14:25:21;;;;;;;2.50;2.40;;;;;;;;;;5104527;27;20446;-64
2021/03/19 14:27:48;;;;;;;4.27;2.80;;;;;;;;;;5108420;27;20440;-64
2021/03/19 14:30:15;;;;;;;2.70;2.50;;;;;;;;;;5099719;27;20525;-64
2021/03/19 14:32:42;;;;;;;3.60;2.50;;;;;;;;;;5110037;27;20464;-65
2021/03/19 14:35:11;;;;;;;2.60;2.40;;;;;;;;;;5118467;27;20948;-65
2021/03/19 14:37:38;;;;;;;3.00;2.73;;;;;;;;;;5107459;27;20571;-65
2021/03/19 14:40:07;;;;;;;3.00;2.23;;;;;;;;;;5120753;27;20442;-65
2021/03/19 14:42:33;;;;;;;5.13;2.60;;;;;;;;;;5114014;27;21038;-64
2021/03/19 14:45:00;;;;;;;4.33;2.60;;;;;;;;;;5120191;27;20445;-64
2021/03/19 14:47:27;;;;;;;2.93;2.60;;;;;;;;;;5113501;27;20491;-64
2021/03/19 14:49:53;;;;;;;3.60;2.83;;;;;;;;;;5119531;27;20528;-64
2021/03/19 14:52:20;;;;;;;3.17;2.87;;;;;;;;;;5069448;22;20492;-67
2021/03/19 14:54:47;;;;;;;2.97;2.60;;;;;;;;;;5024899;28;20535;-66
2021/03/19 14:57:14;;;;;;;2.60;2.40;;;;;;;;;;5038090;28;20578;-67